createdAt,value
2023-05-25T00:00:10.552Z,3.20
2023-05-25T00:02:37.593Z,1.70
2023-05-25T00:05:04.293Z,1.80
2023-05-25T00:07:30.667Z,1.77
2023-05-25T00:09:57.103Z,1.88
2023-05-25T00:12:23.472Z,1.63
2023-05-25T00:14:49.863Z,2.58
2023-05-25T00:17:18.672Z,3.05
2023-05-25T00:19:45.272Z,3.05
2023-05-25T00:22:11.945Z,1.52
2023-05-25T00:24:39.413Z,2.33
2023-05-25T00:27:07.216Z,2.30
2023-05-25T00:29:34.152Z,2.65
2023-05-25T00:32:00.756Z,2.67
2023-05-25T00:34:27.177Z,2.45
2023-05-25T00:36:54.017Z,2.38
2023-05-25T00:39:21.014Z,2.05
2023-05-25T00:41:47.956Z,3.13
2023-05-25T00:44:15.212Z,2.42
2023-05-25T00:46:47.120Z,2.67
2023-05-25T00:49:14.800Z,2.05
2023-05-25T00:51:41.430Z,2.80
2023-05-25T00:57:34.175Z,2.78
2023-05-25T01:00:01.251Z,1.98
2023-05-25T01:02:29.206Z,3.22
2023-05-25T01:04:59.668Z,2.40
2023-05-25T01:07:27.025Z,2.20
2023-05-25T01:10:01.586Z,2.60
2023-05-25T01:12:29.620Z,2.17
2023-05-25T01:14:56.753Z,2.72
2023-05-25T01:17:23.327Z,1.80
2023-05-25T01:19:58.112Z,3.10
2023-05-25T01:22:54.091Z,3.00
2023-05-25T01:25:23.168Z,2.70
2023-05-25T01:28:00.239Z,2.30
2023-05-25T01:30:28.300Z,4.10
2023-05-25T01:32:55.278Z,2.40
2023-05-25T01:35:22.418Z,2.75
2023-05-25T01:37:49.423Z,2.17
2023-05-25T01:40:16.184Z,3.17
2023-05-25T01:42:42.624Z,2.90
2023-05-25T01:45:09.568Z,2.25
2023-05-25T01:47:48.290Z,1.92
2023-05-25T01:50:18.770Z,2.20
2023-05-25T01:52:55.456Z,2.75
2023-05-25T01:55:22.488Z,1.90
2023-05-25T01:57:53.429Z,2.00
2023-05-25T02:00:21.325Z,2.95
2023-05-25T02:02:48.150Z,1.70
2023-05-25T02:05:14.690Z,1.40
2023-05-25T02:07:41.438Z,1.60
2023-05-25T02:10:08.063Z,2.97
2023-05-25T02:12:34.525Z,1.88
2023-05-25T02:15:00.952Z,2.70
2023-05-25T02:17:28.048Z,2.20
2023-05-25T02:19:54.672Z,1.80
2023-05-25T02:22:21.395Z,2.15
2023-05-25T02:24:48.040Z,2.38
2023-05-25T02:27:14.807Z,1.80
2023-05-25T02:29:41.536Z,2.22
2023-05-25T02:32:07.925Z,1.27
2023-05-25T02:34:34.270Z,3.13
2023-05-25T02:37:01.500Z,0.93
2023-05-25T02:39:28.533Z,1.63
2023-05-25T02:41:54.904Z,1.23
2023-05-25T02:44:21.846Z,1.60
2023-05-25T02:46:48.306Z,1.45
2023-05-25T02:49:14.710Z,2.38
2023-05-25T02:51:41.106Z,1.52
2023-05-25T02:54:07.473Z,2.38
2023-05-25T02:56:33.870Z,1.98
2023-05-25T02:59:00.291Z,1.58
2023-05-25T03:01:30.880Z,2.10
2023-05-25T03:03:57.544Z,2.05
2023-05-25T03:06:26.183Z,2.53
2023-05-25T03:08:52.789Z,2.00
2023-05-25T03:11:19.183Z,2.03
2023-05-25T03:13:45.634Z,2.35
2023-05-25T03:16:12.749Z,2.10
2023-05-25T03:18:39.218Z,1.40
2023-05-25T03:21:05.883Z,1.73
2023-05-25T03:23:32.272Z,2.83
2023-05-25T03:25:58.776Z,0.90
2023-05-25T03:28:25.154Z,1.13
2023-05-25T03:30:51.610Z,2.08
2023-05-25T03:33:18.000Z,2.13
2023-05-25T03:35:44.579Z,2.10
2023-05-25T03:38:11.221Z,1.48
2023-05-25T03:40:37.619Z,2.05
2023-05-25T03:43:04.039Z,1.48
2023-05-25T03:45:30.614Z,1.75
2023-05-25T03:47:57.111Z,1.73
2023-05-25T03:50:23.574Z,1.73
2023-05-25T03:52:50.048Z,2.45
2023-05-25T03:55:16.455Z,1.70
2023-05-25T03:57:42.856Z,2.45
2023-05-25T04:00:12.355Z,3.00
2023-05-25T04:02:38.920Z,2.25
2023-05-25T04:05:05.617Z,2.88
2023-05-25T04:07:32.020Z,3.53
2023-05-25T04:09:59.736Z,2.53
2023-05-25T04:12:26.953Z,2.50
2023-05-25T04:14:53.387Z,2.63
2023-05-25T04:17:22.329Z,3.75
2023-05-25T04:19:48.830Z,1.77
2023-05-25T04:22:15.377Z,3.25
2023-05-25T04:24:41.736Z,2.50
2023-05-25T04:27:08.191Z,1.92
2023-05-25T04:29:34.564Z,2.45
2023-05-25T04:32:01.041Z,2.60
2023-05-25T04:34:27.640Z,3.33
2023-05-25T04:36:55.105Z,2.75
2023-05-25T04:39:21.464Z,3.05
2023-05-25T04:41:48.366Z,1.42
2023-05-25T04:44:14.758Z,2.95
2023-05-25T04:46:41.158Z,2.33
2023-05-25T04:49:10.439Z,3.40
2023-05-25T04:51:37.448Z,3.03
2023-05-25T04:54:03.921Z,2.47
2023-05-25T04:56:30.371Z,3.78
2023-05-25T04:58:56.746Z,2.72
2023-05-25T05:01:24.167Z,3.45
2023-05-25T05:03:50.713Z,2.78
2023-05-25T05:06:17.863Z,3.70
2023-05-25T05:08:44.252Z,3.63
2023-05-25T05:11:10.735Z,3.33
2023-05-25T05:13:37.083Z,2.05
2023-05-25T05:16:03.494Z,3.35
2023-05-25T05:18:29.945Z,3.92
2023-05-25T05:20:56.321Z,2.85
2023-05-25T05:23:22.699Z,3.97
2023-05-25T05:25:49.064Z,2.40
2023-05-25T05:28:15.472Z,3.40
2023-05-25T05:30:41.884Z,3.90
2023-05-25T05:33:08.325Z,3.78
2023-05-25T05:35:34.789Z,3.78
2023-05-25T05:38:01.285Z,3.28
2023-05-25T05:40:27.796Z,3.72
2023-05-25T05:42:54.254Z,4.43
2023-05-25T05:45:21.351Z,4.18
2023-05-25T05:47:47.762Z,2.10
2023-05-25T05:50:14.225Z,2.53
2023-05-25T05:52:40.729Z,1.60
2023-05-25T05:55:07.741Z,3.95
2023-05-25T05:57:34.122Z,3.72
2023-05-25T06:00:00.865Z,2.65
2023-05-25T06:02:27.407Z,3.13
2023-05-25T06:04:53.793Z,4.88
2023-05-25T06:07:20.987Z,4.53
2023-05-25T06:09:47.434Z,4.78
2023-05-25T06:12:13.846Z,3.72
2023-05-25T06:14:40.297Z,4.45
2023-05-25T06:17:06.891Z,4.20
2023-05-25T06:19:33.418Z,4.28
2023-05-25T06:21:59.858Z,4.18
2023-05-25T06:24:26.325Z,4.78
2023-05-25T06:26:52.787Z,4.43
2023-05-25T06:29:19.181Z,3.47
2023-05-25T06:31:45.945Z,3.05
2023-05-25T06:34:12.457Z,2.55
2023-05-25T06:36:39.400Z,3.35
2023-05-25T06:39:05.837Z,4.35
2023-05-25T06:41:32.358Z,2.83
2023-05-25T06:43:58.771Z,3.97
2023-05-25T06:46:25.347Z,3.63
2023-05-25T06:48:51.819Z,3.10
2023-05-25T06:51:18.539Z,3.03
2023-05-25T06:53:45.003Z,2.72
2023-05-25T06:56:11.425Z,3.03
2023-05-25T06:58:37.977Z,3.13
2023-05-25T07:01:04.493Z,3.13
2023-05-25T07:03:32.568Z,3.30
2023-05-25T07:05:58.945Z,3.65
2023-05-25T07:08:25.392Z,2.95
2023-05-25T07:10:51.778Z,3.45
2023-05-25T07:13:18.248Z,3.45
2023-05-25T07:15:44.933Z,3.17
2023-05-25T07:18:12.603Z,3.15
2023-05-25T07:20:42.077Z,3.30
2023-05-25T07:23:09.967Z,3.25
2023-05-25T07:25:36.480Z,3.28
2023-05-25T07:28:03.132Z,3.13
2023-05-25T07:30:30.228Z,2.58
2023-05-25T07:32:58.059Z,3.03
2023-05-25T07:35:25.169Z,4.10
2023-05-25T07:37:57.962Z,2.72
2023-05-25T07:40:24.349Z,3.00
2023-05-25T07:42:50.731Z,3.80
2023-05-25T07:45:17.202Z,3.72
2023-05-25T07:47:43.711Z,2.80
2023-05-25T07:50:10.536Z,3.45
2023-05-25T07:52:38.398Z,3.15
2023-05-25T07:55:08.152Z,3.13
2023-05-25T07:57:34.867Z,2.72
2023-05-25T08:00:01.792Z,3.20
2023-05-25T08:02:28.367Z,2.75
2023-05-25T08:04:54.935Z,3.03
2023-05-25T08:07:21.583Z,2.30
2023-05-25T08:09:47.984Z,2.40
2023-05-25T08:12:34.325Z,3.20
2023-05-25T08:15:00.804Z,2.38
2023-05-25T08:17:27.285Z,1.38
2023-05-25T08:19:57.714Z,3.13
2023-05-25T08:22:24.204Z,2.40
2023-05-25T08:24:50.866Z,2.85
2023-05-25T08:27:18.087Z,3.15
2023-05-25T08:29:44.526Z,2.22
2023-05-25T08:32:11.051Z,2.30
2023-05-25T08:34:37.539Z,2.28
2023-05-25T08:37:04.045Z,2.97
2023-05-25T08:39:31.826Z,2.03
2023-05-25T08:41:59.733Z,1.85
2023-05-25T08:44:27.012Z,2.97
2023-05-25T08:46:56.157Z,2.30
2023-05-25T08:49:22.946Z,2.67
2023-05-25T08:51:51.037Z,2.30
2023-05-25T08:54:29.790Z,2.33
2023-05-25T08:57:01.640Z,2.00
2023-05-25T08:59:33.988Z,2.47
2023-05-25T09:02:20.901Z,2.15
2023-05-25T09:04:47.395Z,2.72
2023-05-25T09:07:14.126Z,2.20
2023-05-25T09:09:40.647Z,2.47
2023-05-25T09:12:07.528Z,2.00
2023-05-25T09:14:34.817Z,2.70
2023-05-25T09:17:01.337Z,2.15
2023-05-25T09:19:27.742Z,2.08
2023-05-25T09:22:03.066Z,2.05
2023-05-25T09:24:34.143Z,1.70
2023-05-25T09:27:01.083Z,1.95
2023-05-25T09:29:27.430Z,2.28
2023-05-25T09:31:53.893Z,3.35
2023-05-25T09:34:20.543Z,1.88
2023-05-25T09:36:47.062Z,2.08
2023-05-25T09:39:17.135Z,2.10
2023-05-25T09:41:43.777Z,1.90
2023-05-25T09:44:11.698Z,1.92
2023-05-25T09:46:39.167Z,2.17
2023-05-25T09:49:08.431Z,1.98
2023-05-25T09:51:35.376Z,1.83
2023-05-25T09:54:02.046Z,2.13
2023-05-25T09:56:31.059Z,1.70
2023-05-25T09:58:57.649Z,1.70
2023-05-25T10:01:24.340Z,1.90
2023-05-25T10:04:02.763Z,2.40
2023-05-25T10:06:31.826Z,1.95
2023-05-25T10:08:58.297Z,1.88
2023-05-25T10:11:29.224Z,2.42
2023-05-25T10:13:56.660Z,2.17
2023-05-25T10:16:25.430Z,1.73
2023-05-25T10:18:54.637Z,2.08
2023-05-25T10:21:22.684Z,1.85
2023-05-25T10:23:51.819Z,2.70
2023-05-25T10:26:19.927Z,2.30
2023-05-25T10:28:47.791Z,3.17
2023-05-25T10:31:14.770Z,2.90
2023-05-25T10:33:41.434Z,2.42
2023-05-25T10:36:11.209Z,1.95
2023-05-25T10:38:39.274Z,2.30
2023-05-25T10:41:05.962Z,2.97
2023-05-25T10:43:32.412Z,2.85
2023-05-25T10:45:58.819Z,3.13
2023-05-25T10:48:35.057Z,3.30
2023-05-25T10:51:01.436Z,3.00
2023-05-25T10:53:27.936Z,3.33
2023-05-25T10:55:54.294Z,3.00
2023-05-25T10:58:21.687Z,3.60
2023-05-25T11:01:17.759Z,2.92
2023-05-25T11:03:44.492Z,3.28
2023-05-25T11:06:11.675Z,2.33
2023-05-25T11:08:59.044Z,3.03
2023-05-25T11:11:49.546Z,3.08
2023-05-25T11:14:31.463Z,2.15
2023-05-25T11:17:11.663Z,2.70
2023-05-25T11:19:39.020Z,2.13
2023-05-25T11:22:20.576Z,2.17
2023-05-25T11:24:50.703Z,2.78
2023-05-25T11:27:24.039Z,2.00
2023-05-25T11:29:51.372Z,2.60
2023-05-25T11:32:17.801Z,2.15
2023-05-25T11:34:46.993Z,2.60
2023-05-25T11:37:16.154Z,1.95
2023-05-25T11:39:43.862Z,2.38
2023-05-25T11:42:11.440Z,2.10
2023-05-25T11:44:38.996Z,2.33
2023-05-25T11:47:09.833Z,2.63
2023-05-25T11:49:39.949Z,1.60
2023-05-25T11:52:07.264Z,2.40
2023-05-25T11:54:34.121Z,2.25
2023-05-25T11:57:01.454Z,2.67
2023-05-25T11:59:29.846Z,1.90
2023-05-25T12:02:00.078Z,2.03
2023-05-25T12:04:26.917Z,2.10
2023-05-25T12:07:00.982Z,1.95
2023-05-25T12:09:27.370Z,2.35
2023-05-25T12:11:53.882Z,2.13
2023-05-25T12:14:20.871Z,2.00
2023-05-25T12:16:47.331Z,2.33
2023-05-25T12:19:14.047Z,1.70
2023-05-25T12:21:41.034Z,2.30
2023-05-25T12:24:08.203Z,1.35
2023-05-25T12:26:34.708Z,1.60
2023-05-25T12:29:01.232Z,1.98
2023-05-25T12:31:32.881Z,1.50
2023-05-25T12:34:06.394Z,1.65
2023-05-25T12:36:42.175Z,1.90
2023-05-25T12:39:09.816Z,1.73
2023-05-25T12:41:44.076Z,1.80
2023-05-25T12:44:21.331Z,1.88
2023-05-25T12:46:48.665Z,1.63
2023-05-25T12:49:27.206Z,1.60
2023-05-25T12:51:54.083Z,1.75
2023-05-25T12:54:37.084Z,1.88
2023-05-25T12:57:05.738Z,2.13
2023-05-25T12:59:32.942Z,2.00
2023-05-25T13:01:59.449Z,1.60
2023-05-25T13:04:26.626Z,1.60
2023-05-25T13:06:54.065Z,2.20
2023-05-25T13:09:23.386Z,1.77
2023-05-25T13:11:49.740Z,1.98
2023-05-25T13:14:16.196Z,1.98
2023-05-25T13:16:42.679Z,2.40
2023-05-25T13:19:09.193Z,2.08
2023-05-25T13:21:35.851Z,2.03
2023-05-25T13:24:02.218Z,2.13
2023-05-25T13:26:28.669Z,2.88
2023-05-25T13:28:55.021Z,2.88
2023-05-25T13:31:21.448Z,2.42
2023-05-25T13:33:47.861Z,1.70
2023-05-25T13:36:15.411Z,2.17
2023-05-25T13:38:41.895Z,1.92
2023-05-25T13:41:08.622Z,2.10
2023-05-25T13:43:35.040Z,2.25
2023-05-25T13:46:01.655Z,1.83
2023-05-25T13:48:29.826Z,2.72
2023-05-25T13:50:56.254Z,1.95
2023-05-25T13:53:22.643Z,2.13
2023-05-25T13:55:49.038Z,1.85
2023-05-25T13:58:15.434Z,2.50
2023-05-25T14:00:42.123Z,2.10
2023-05-25T14:03:08.890Z,3.33
2023-05-25T14:05:35.405Z,2.58
2023-05-25T14:08:05.007Z,2.60
2023-05-25T14:10:31.609Z,2.33
2023-05-25T14:12:58.062Z,1.90
2023-05-25T14:15:25.407Z,2.00
2023-05-25T14:17:51.853Z,2.88
2023-05-25T14:20:21.140Z,2.58
2023-05-25T14:22:47.643Z,3.05
2023-05-25T14:25:14.170Z,2.28
2023-05-25T14:27:40.675Z,2.60
2023-05-25T14:30:07.415Z,2.92
2023-05-25T14:32:33.828Z,3.08
2023-05-25T14:35:00.323Z,3.33
2023-05-25T14:37:26.694Z,3.45
2023-05-25T14:39:53.114Z,3.20
2023-05-25T14:42:19.484Z,2.47
2023-05-25T14:44:45.909Z,3.15
2023-05-25T14:47:12.543Z,2.53
2023-05-25T14:49:39.074Z,3.03
2023-05-25T14:52:05.669Z,3.53
2023-05-25T14:54:32.091Z,2.70
2023-05-25T14:56:58.485Z,2.88
2023-05-25T14:59:24.874Z,4.93
2023-05-25T15:01:51.292Z,3.60
2023-05-25T15:04:17.962Z,3.20
2023-05-25T15:06:44.572Z,3.75
2023-05-25T15:09:13.235Z,3.40
2023-05-25T15:11:39.652Z,2.85
2023-05-25T15:14:06.084Z,3.33
2023-05-25T15:16:32.517Z,3.75
2023-05-25T15:18:59.025Z,4.10
2023-05-25T15:21:26.594Z,3.50
2023-05-25T15:23:53.073Z,4.00
2023-05-25T15:26:19.489Z,2.97
2023-05-25T15:28:45.906Z,4.25
2023-05-25T15:31:12.521Z,3.60
2023-05-25T15:33:52.057Z,4.35
2023-05-25T15:36:22.986Z,3.72
2023-05-25T15:38:49.648Z,3.13
2023-05-25T15:41:16.884Z,4.20
2023-05-25T15:43:49.853Z,3.45
2023-05-25T15:46:16.383Z,3.80
2023-05-25T15:48:42.758Z,3.92
2023-05-25T15:51:09.132Z,3.92
2023-05-25T15:53:35.634Z,3.70
2023-05-25T15:56:02.552Z,4.15
2023-05-25T15:58:28.907Z,4.13
2023-05-25T16:00:55.290Z,4.32
2023-05-25T16:03:21.739Z,3.88
2023-05-25T16:05:48.185Z,3.30
2023-05-25T16:08:14.714Z,4.13
2023-05-25T16:10:41.150Z,4.05
2023-05-25T16:13:07.664Z,3.10
2023-05-25T16:15:34.045Z,3.92
2023-05-25T16:18:01.318Z,4.10
2023-05-25T16:20:27.807Z,4.15
2023-05-25T16:22:54.265Z,3.47
2023-05-25T16:25:20.990Z,3.42
2023-05-25T16:27:47.390Z,4.10
2023-05-25T16:30:14.194Z,3.92
2023-05-25T16:32:40.690Z,3.90
2023-05-25T16:35:07.314Z,4.90
2023-05-25T16:37:33.765Z,3.80
2023-05-25T16:40:00.404Z,3.47
2023-05-25T16:42:26.756Z,4.10
2023-05-25T16:44:53.238Z,3.70
2023-05-25T16:47:19.711Z,4.53
2023-05-25T16:49:46.116Z,2.88
2023-05-25T16:52:12.521Z,4.20
2023-05-25T16:54:38.925Z,4.70
2023-05-25T16:57:06.953Z,3.22
2023-05-25T16:59:33.358Z,3.53
2023-05-25T17:02:00.402Z,4.00
2023-05-25T17:04:27.080Z,4.28
2023-05-25T17:06:53.442Z,4.60
2023-05-25T17:09:21.091Z,4.22
2023-05-25T17:11:47.515Z,4.95
2023-05-25T17:14:14.121Z,4.18
2023-05-25T17:16:40.627Z,3.33
2023-05-25T17:19:07.116Z,4.68
2023-05-25T17:21:34.865Z,4.57
2023-05-25T17:24:01.274Z,4.00
2023-05-25T17:26:27.727Z,3.30
2023-05-25T17:28:54.905Z,3.85
2023-05-25T17:31:21.315Z,4.10
2023-05-25T17:33:47.742Z,3.92
2023-05-25T17:36:14.164Z,3.58
2023-05-25T17:38:41.166Z,3.72
2023-05-25T17:41:07.688Z,3.65
2023-05-25T17:43:34.072Z,3.45
2023-05-25T17:46:00.609Z,3.95
2023-05-25T17:48:27.320Z,3.55
2023-05-25T17:50:53.715Z,3.97
2023-05-25T17:53:20.098Z,4.25
2023-05-25T17:55:46.664Z,3.20
2023-05-25T17:58:13.182Z,4.60
2023-05-25T18:00:39.538Z,3.92
2023-05-25T18:03:06.306Z,3.53
2023-05-25T18:05:32.806Z,3.42
2023-05-25T18:07:59.161Z,4.07
2023-05-25T18:10:25.590Z,3.80
2023-05-25T18:12:52.403Z,4.32
2023-05-25T18:15:18.998Z,3.67
2023-05-25T18:17:45.493Z,3.80
2023-05-25T18:20:12.015Z,4.60
2023-05-25T18:22:38.487Z,3.70
2023-05-25T18:25:05.236Z,4.93
2023-05-25T18:27:31.648Z,3.67
2023-05-25T18:29:58.974Z,3.58
2023-05-25T18:32:25.489Z,3.88
2023-05-25T18:34:51.918Z,3.17
2023-05-25T18:37:18.359Z,3.80
2023-05-25T18:39:44.702Z,3.97
2023-05-25T18:42:11.183Z,3.45
2023-05-25T18:44:37.672Z,3.88
2023-05-25T18:47:04.336Z,3.72
2023-05-25T18:49:33.637Z,3.70
2023-05-25T18:52:01.472Z,4.20
2023-05-25T18:54:27.916Z,3.85
2023-05-25T18:56:54.254Z,3.58
2023-05-25T18:59:20.679Z,3.47
2023-05-25T19:01:47.244Z,3.80
2023-05-25T19:04:13.693Z,3.20
2023-05-25T19:06:40.107Z,4.05
2023-05-25T19:09:06.537Z,3.05
2023-05-25T19:11:32.942Z,3.28
2023-05-25T19:13:59.792Z,3.50
2023-05-25T19:16:26.238Z,3.30
2023-05-25T19:18:52.774Z,4.22
2023-05-25T19:21:19.166Z,4.07
2023-05-25T19:23:45.727Z,3.45
2023-05-25T19:26:12.231Z,3.38
2023-05-25T19:28:38.644Z,3.20
2023-05-25T19:31:05.135Z,4.05
2023-05-25T19:33:31.578Z,3.53
2023-05-25T19:35:58.163Z,3.45
2023-05-25T19:38:26.613Z,3.25
2023-05-25T19:40:55.376Z,3.58
2023-05-25T19:43:21.812Z,4.40
2023-05-25T19:45:48.496Z,3.10
2023-05-25T19:48:14.988Z,3.65
2023-05-25T19:50:41.929Z,2.15
2023-05-25T19:53:08.334Z,3.22
2023-05-25T19:55:36.688Z,3.58
2023-05-25T19:58:03.121Z,3.40
2023-05-25T20:00:29.611Z,3.08
2023-05-25T20:02:56.617Z,3.90
2023-05-25T20:05:23.261Z,3.50
2023-05-25T20:07:52.149Z,3.58
2023-05-25T20:10:18.931Z,3.10
2023-05-25T20:12:45.397Z,3.30
2023-05-25T20:15:11.918Z,3.22
2023-05-25T20:17:38.340Z,3.58
2023-05-25T20:20:05.267Z,2.92
2023-05-25T20:22:32.805Z,4.00
2023-05-25T20:25:00.786Z,3.40
2023-05-25T20:27:27.833Z,3.58
2023-05-25T20:29:54.890Z,3.95
2023-05-25T20:32:21.389Z,3.20
2023-05-25T20:34:47.837Z,3.10
2023-05-25T20:37:14.196Z,2.58
2023-05-25T20:39:40.700Z,4.30
2023-05-25T20:42:07.317Z,2.85
2023-05-25T20:44:33.709Z,2.95
2023-05-25T20:47:00.107Z,3.75
2023-05-25T20:49:26.496Z,2.72
2023-05-25T20:51:52.952Z,3.40
2023-05-25T20:54:19.341Z,3.92
2023-05-25T20:56:47.479Z,3.92
2023-05-25T20:59:13.970Z,3.65
2023-05-25T21:01:40.458Z,3.15
2023-05-25T21:04:07.044Z,3.05
2023-05-25T21:06:33.580Z,2.92
2023-05-25T21:08:59.959Z,3.50
2023-05-25T21:11:26.741Z,3.30
2023-05-25T21:13:53.168Z,2.95
2023-05-25T21:16:19.578Z,3.20
2023-05-25T21:18:46.042Z,3.50
2023-05-25T21:21:12.455Z,2.97
2023-05-25T21:23:38.863Z,4.15
2023-05-25T21:26:05.259Z,3.53
2023-05-25T21:28:31.663Z,3.63
2023-05-25T21:30:58.029Z,3.42
2023-05-25T21:33:24.499Z,3.25
2023-05-25T21:35:50.865Z,3.33
2023-05-25T21:38:18.337Z,3.10
2023-05-25T21:40:44.705Z,3.13
2023-05-25T21:43:11.162Z,3.13
2023-05-25T21:45:37.587Z,3.50
2023-05-25T21:48:04.676Z,3.17
2023-05-25T21:50:31.203Z,3.53
2023-05-25T21:52:57.707Z,2.95
2023-05-25T21:55:24.270Z,3.33
2023-05-25T21:57:50.713Z,3.33
2023-05-25T22:00:18.305Z,3.42
2023-05-25T22:02:44.808Z,3.80
2023-05-25T22:05:11.343Z,3.28
2023-05-25T22:07:37.724Z,3.15
2023-05-25T22:10:04.221Z,3.25
2023-05-25T22:12:30.612Z,2.53
2023-05-25T22:14:57.016Z,3.13
2023-05-25T22:17:23.431Z,3.10
2023-05-25T22:20:03.313Z,3.13
2023-05-25T22:22:34.082Z,3.75
2023-05-25T22:25:00.609Z,4.40
2023-05-25T22:27:27.041Z,3.08
2023-05-25T22:29:53.501Z,3.03
2023-05-25T22:32:19.910Z,3.33
2023-05-25T22:34:47.213Z,3.72
2023-05-25T22:37:14.034Z,3.05
2023-05-25T22:39:40.444Z,3.05
2023-05-25T22:42:06.915Z,3.20
2023-05-25T22:44:34.957Z,3.90
2023-05-25T22:47:01.328Z,3.80
2023-05-25T22:49:27.757Z,2.83
2023-05-25T22:51:54.263Z,3.10
2023-05-25T22:54:20.619Z,2.67
2023-05-25T22:56:47.014Z,3.10
2023-05-25T22:59:13.377Z,3.60
2023-05-25T23:01:39.821Z,3.10
2023-05-25T23:04:06.463Z,3.95
2023-05-25T23:06:33.031Z,3.08
2023-05-25T23:08:59.417Z,2.80
2023-05-25T23:11:27.068Z,2.22
2023-05-25T23:13:54.734Z,3.45
2023-05-25T23:16:21.248Z,2.67
2023-05-25T23:18:47.658Z,3.03
2023-05-25T23:21:13.989Z,4.57
2023-05-25T23:23:40.518Z,2.42
2023-05-25T23:26:06.932Z,4.07
2023-05-25T23:28:33.427Z,2.33
2023-05-25T23:30:59.812Z,3.33
2023-05-25T23:33:26.268Z,2.83
2023-05-25T23:35:52.617Z,3.15
2023-05-25T23:38:18.997Z,2.97
2023-05-25T23:40:45.484Z,3.22
2023-05-25T23:43:12.820Z,2.75
2023-05-25T23:45:39.242Z,3.55
2023-05-25T23:48:05.793Z,1.80
2023-05-25T23:50:32.313Z,3.42
2023-05-25T23:52:58.736Z,3.60
2023-05-25T23:55:25.088Z,3.08
2023-05-25T23:57:51.497Z,3.00
